Terminal Aerodrome Forecast
Issued by NWS

Home | Current Version | Previous Version | Text Only | Print | Product List | Glossary On
Versions: 1 2 3 4 5 6 7 8 9 10 11 12 13 14 15 16 17 18 19
000
FTUS43 KDLH 052000 AAB
TAFBRD
TAF AMD
KBRD 052001Z 0520/0618 15009G18KT P6SM SKC
     FM060100 13006KT P6SM BKN060
     FM060800 13007KT P6SM -SHRA BKN025 OVC040
     FM061200 13005KT P6SM -SHRA SCT007 OVC015=

USA.gov is the U.S. government's official web portal to all federal, state and local government web resources and services.